能登空港の過去48時間の天気

能登空港 (Noto)

現在時刻: 9/23 07:50 JST (9/22 22:50 UTC) 以下の時間は現地時間です。

過去48時間のMETAR気象情報
時間 風向 風速(m/s) 視程 気温(℃) 湿度(%) 気圧(hPa) 天気現象
22 19:00 南西 4 10km以上 19 94 1011
22 18:00 南南西 4 2000m 20 100 1010 弱いしゅう雨 もや
22 17:00 南西 2 8000m 20 94 1010 弱いしゅう雨
22 16:00 南西 3 10km以上 20 94 1009 弱いしゅう雨
22 15:00 西南西 6 8000m 20 88 1009 弱いしゅう雨
22 14:00 西 3 5000m 19 100 1009 しゅう雨 もや
22 13:00 西 5 7000m 20 94 1010 弱いしゅう雨
22 12:00 南西 6 10km以上 24 89 1009 弱いしゅう雨
22 11:00 南南西 3 10km以上 25 89 1009
22 10:00 南南東 2 10km以上 24 89 1009
22 09:00 南南西 2 10km以上 24 89 1009 周辺でしゅう雨
22 08:00 不定 1 10km以上 24 89 1009 周辺でしゅう雨
21 19:00 東北東 2 10km以上 21 94 1011
21 18:00 2 10km以上 23 83 1011
21 17:00 南東 2 10km以上 26 65 1011
21 16:00 東南東 3 10km以上 27 62 1011
21 15:00 南東 3 10km以上 28 55 1011
21 14:00 不定 2 10km以上 28 55 1012
21 13:00 南南東 4 10km以上 28 55 1012
21 12:00 南南東 3 10km以上 28 62 1013
21 11:00 2 10km以上 28 62 1013
21 10:00 南西 2 10km以上 26 70 1014
21 09:00 南西 2 10km以上 25 69 1014
21 08:00 南西 2 10km以上 24 78 1014
RJNW 221000Z 22007KT 9999 FEW000 BKN140 19/18 Q1011
RJNW 220900Z 21008KT 2000 -SHRA BR FEW000 SCT002 BKN004 20/20 Q1010
RJNW 220800Z 23004KT 8000 -SHRA FEW000 SCT070 BKN120 20/19 Q1010
RJNW 220700Z 23006KT 200V260 9999 -SHRA FEW000 SCT070 BKN110 20/19 Q1009
RJNW 220600Z 24012KT 210V280 8000 -SHRA FEW000 SCT040 BKN070 20/18 Q1009
RJNW 220500Z 26005KT 220V310 5000 SHRA BR FEW000 SCT015 BKN020 19/19 Q1009
RJNW 220400Z 27009KT 240V310 7000 -SHRA FEW000 SCT010 BKN020 20/19 Q1010
RJNW 220300Z 23012KT 9999 -SHRA FEW010 SCT020 BKN030 24/22 Q1009
RJNW 220200Z 20005KT 170V240 9999 FEW010 SCT030 BKN040 25/23 Q1009
RJNW 220100Z 16004KT 9999 FEW007 SCT035 BKN040 24/22 Q1009
RJNW 220000Z 21004KT 170V240 9999 VCSH FEW003 SCT040 BKN050 24/22 Q1009
RJNW 212300Z VRB01KT 9999 VCSH FEW002 SCT040 BKN050 24/22 Q1009
RJNW 211000Z 07003KT CAVOK 21/20 Q1011
RJNW 210900Z 10004KT 9999 FEW025 23/20 Q1011
RJNW 210800Z 14004KT 9999 FEW025 26/19 Q1011
RJNW 210700Z 11005KT 060V140 9999 FEW030 27/19 Q1011
RJNW 210600Z 13005KT 090V180 9999 FEW030 28/18 Q1011
RJNW 210500Z VRB04KT 9999 FEW030 28/18 Q1012
RJNW 210400Z 15007KT 110V200 9999 FEW030 28/18 Q1012
RJNW 210300Z 16005KT 070V230 9999 FEW030 28/20 Q1013
RJNW 210200Z 18003KT 110V250 9999 FEW030 28/20 Q1013
RJNW 210100Z 23003KT 190V300 9999 FEW020 26/20 Q1014
RJNW 210000Z 22004KT 170V260 CAVOK 25/19 Q1014
RJNW 202300Z 22003KT 180V260 CAVOK 24/20 Q1014